sensor_id;sensor_type;location;lat;lon;timestamp;temperature;humidity
18654;DHT22;9456;47.824;16.228;2023-03-16T00:01:06;2.40;77.20
18654;DHT22;9456;47.824;16.228;2023-03-16T00:03:35;2.40;77.20
18654;DHT22;9456;47.824;16.228;2023-03-16T00:06:05;2.30;77.50
18654;DHT22;9456;47.824;16.228;2023-03-16T00:08:34;2.30;77.70
18654;DHT22;9456;47.824;16.228;2023-03-16T00:14:09;2.40;77.20
18654;DHT22;9456;47.824;16.228;2023-03-16T00:16:40;2.40;77.40
18654;DHT22;9456;47.824;16.228;2023-03-16T00:19:10;2.40;77.80
18654;DHT22;9456;47.824;16.228;2023-03-16T00:21:39;2.30;78.20
18654;DHT22;9456;47.824;16.228;2023-03-16T00:24:09;2.30;78.80
18654;DHT22;9456;47.824;16.228;2023-03-16T00:26:41;2.40;79.30
18654;DHT22;9456;47.824;16.228;2023-03-16T00:29:10;2.40;79.00
18654;DHT22;9456;47.824;16.228;2023-03-16T00:34:44;2.50;79.00
18654;DHT22;9456;47.824;16.228;2023-03-16T00:37:13;2.50;79.00
18654;DHT22;9456;47.824;16.228;2023-03-16T00:39:42;2.50;79.00
18654;DHT22;9456;47.824;16.228;2023-03-16T00:42:12;2.60;79.20
18654;DHT22;9456;47.824;16.228;2023-03-16T00:44:41;2.60;79.50
18654;DHT22;9456;47.824;16.228;2023-03-16T00:47:11;2.60;79.20
18654;DHT22;9456;47.824;16.228;2023-03-16T00:49:42;2.70;78.80
18654;DHT22;9456;47.824;16.228;2023-03-16T00:52:29;2.70;78.50
18654;DHT22;9456;47.824;16.228;2023-03-16T00:57:29;2.60;78.30
18654;DHT22;9456;47.824;16.228;2023-03-16T00:59:58;2.50;78.40
18654;DHT22;9456;47.824;16.228;2023-03-16T01:13:20;2.30;79.30
18654;DHT22;9456;47.824;16.228;2023-03-16T01:15:51;2.20;79.50
18654;DHT22;9456;47.824;16.228;2023-03-16T01:18:29;2.20;79.90
18654;DHT22;9456;47.824;16.228;2023-03-16T01:21:21;2.10;80.30
18654;DHT22;9456;47.824;16.228;2023-03-16T01:24:09;2.00;80.30
18654;DHT22;9456;47.824;16.228;2023-03-16T01:29:09;2.00;80.60
18654;DHT22;9456;47.824;16.228;2023-03-16T01:31:43;2.00;80.80
18654;DHT22;9456;47.824;16.228;2023-03-16T01:34:12;1.90;81.00
18654;DHT22;9456;47.824;16.228;2023-03-16T01:36:41;1.80;80.80
18654;DHT22;9456;47.824;16.228;2023-03-16T01:39:10;1.80;81.00
18654;DHT22;9456;47.824;16.228;2023-03-16T01:41:39;1.80;81.30
18654;DHT22;9456;47.824;16.228;2023-03-16T01:44:15;1.70;81.20
18654;DHT22;9456;47.824;16.228;2023-03-16T01:46:44;1.70;81.20
18654;DHT22;9456;47.824;16.228;2023-03-16T01:51:43;1.60;81.70
18654;DHT22;9456;47.824;16.228;2023-03-16T01:54:20;1.50;81.80
18654;DHT22;9456;47.824;16.228;2023-03-16T01:56:52;1.50;81.70
18654;DHT22;9456;47.824;16.228;2023-03-16T01:59:24;1.60;80.80
18654;DHT22;9456;47.824;16.228;2023-03-16T02:01:52;1.60;80.80
18654;DHT22;9456;47.824;16.228;2023-03-16T02:04:37;1.60;81.00
18654;DHT22;9456;47.824;16.228;2023-03-16T02:07:05;1.50;81.30
18654;DHT22;9456;47.824;16.228;2023-03-16T02:09:35;1.40;81.60
18654;DHT22;9456;47.824;16.228;2023-03-16T02:12:05;1.40;81.80
18654;DHT22;9456;47.824;16.228;2023-03-16T02:14:34;1.30;81.90
18654;DHT22;9456;47.824;16.228;2023-03-16T02:17:03;1.40;81.70
18654;DHT22;9456;47.824;16.228;2023-03-16T02:19:37;1.40;81.20
18654;DHT22;9456;47.824;16.228;2023-03-16T02:22:05;1.50;80.90
18654;DHT22;9456;47.824;16.228;2023-03-16T02:24:34;1.40;80.90
18654;DHT22;9456;47.824;16.228;2023-03-16T02:27:04;1.40;80.80
18654;DHT22;9456;47.824;16.228;2023-03-16T02:30:11;1.40;80.60
18654;DHT22;9456;47.824;16.228;2023-03-16T02:32:43;1.40;80.60
18654;DHT22;9456;47.824;16.228;2023-03-16T02:35:12;1.40;80.90
18654;DHT22;9456;47.824;16.228;2023-03-16T02:37:42;1.30;81.10
18654;DHT22;9456;47.824;16.228;2023-03-16T02:40:20;1.30;80.90
18654;DHT22;9456;47.824;16.228;2023-03-16T02:42:51;1.30;81.00
18654;DHT22;9456;47.824;16.228;2023-03-16T02:45:24;1.30;81.10
18654;DHT22;9456;47.824;16.228;2023-03-16T02:47:54;1.30;81.20
18654;DHT22;9456;47.824;16.228;2023-03-16T02:50:23;1.30;81.00
18654;DHT22;9456;47.824;16.228;2023-03-16T02:52:52;1.30;81.00
18654;DHT22;9456;47.824;16.228;2023-03-16T02:55:21;1.30;80.90
18654;DHT22;9456;47.824;16.228;2023-03-16T02:57:50;1.30;80.90
18654;DHT22;9456;47.824;16.228;2023-03-16T03:00:21;1.30;81.10
18654;DHT22;9456;47.824;16.228;2023-03-16T03:02:50;1.20;81.40
18654;DHT22;9456;47.824;16.228;2023-03-16T03:05:20;1.20;81.50
18654;DHT22;9456;47.824;16.228;2023-03-16T03:07:50;1.10;81.90
18654;DHT22;9456;47.824;16.228;2023-03-16T03:10:19;1.10;82.40
18654;DHT22;9456;47.824;16.228;2023-03-16T03:12:48;1.10;82.60
18654;DHT22;9456;47.824;16.228;2023-03-16T03:15:17;1.00;82.60
18654;DHT22;9456;47.824;16.228;2023-03-16T03:17:47;1.00;82.90
18654;DHT22;9456;47.824;16.228;2023-03-16T03:20:16;0.90;83.10
18654;DHT22;9456;47.824;16.228;2023-03-16T03:22:46;0.80;83.50
18654;DHT22;9456;47.824;16.228;2023-03-16T03:25:15;0.80;83.90
18654;DHT22;9456;47.824;16.228;2023-03-16T03:27:44;0.80;84.00
18654;DHT22;9456;47.824;16.228;2023-03-16T03:30:15;0.70;84.20
18654;DHT22;9456;47.824;16.228;2023-03-16T03:32:42;0.80;84.60
18654;DHT22;9456;47.824;16.228;2023-03-16T03:35:12;0.70;84.50
18654;DHT22;9456;47.824;16.228;2023-03-16T03:37:41;0.80;84.50
18654;DHT22;9456;47.824;16.228;2023-03-16T03:40:12;0.80;84.40
18654;DHT22;9456;47.824;16.228;2023-03-16T03:42:40;0.80;84.40
18654;DHT22;9456;47.824;16.228;2023-03-16T03:45:11;0.80;84.20
18654;DHT22;9456;47.824;16.228;2023-03-16T03:47:40;0.80;84.10
18654;DHT22;9456;47.824;16.228;2023-03-16T03:50:11;0.80;84.20
18654;DHT22;9456;47.824;16.228;2023-03-16T03:52:45;0.70;84.50
18654;DHT22;9456;47.824;16.228;2023-03-16T03:55:17;0.60;85.00
18654;DHT22;9456;47.824;16.228;2023-03-16T03:57:46;0.60;85.20
18654;DHT22;9456;47.824;16.228;2023-03-16T04:00:16;0.50;85.40
18654;DHT22;9456;47.824;16.228;2023-03-16T04:02:46;0.50;85.60
18654;DHT22;9456;47.824;16.228;2023-03-16T04:05:16;0.50;85.80
18654;DHT22;9456;47.824;16.228;2023-03-16T04:07:45;0.40;85.90
18654;DHT22;9456;47.824;16.228;2023-03-16T04:10:14;0.40;86.00
18654;DHT22;9456;47.824;16.228;2023-03-16T04:12:43;0.30;86.00
18654;DHT22;9456;47.824;16.228;2023-03-16T04:15:12;0.30;86.30
18654;DHT22;9456;47.824;16.228;2023-03-16T04:17:41;0.20;86.60
18654;DHT22;9456;47.824;16.228;2023-03-16T04:20:14;0.10;86.80
18654;DHT22;9456;47.824;16.228;2023-03-16T04:22:46;0.10;87.50
18654;DHT22;9456;47.824;16.228;2023-03-16T04:27:46;0.00;87.80
18654;DHT22;9456;47.824;16.228;2023-03-16T04:30:17;-0.10;87.80
18654;DHT22;9456;47.824;16.228;2023-03-16T04:38:21;-0.40;89.10
18654;DHT22;9456;47.824;16.228;2023-03-16T04:46:31;-0.50;90.30
18654;DHT22;9456;47.824;16.228;2023-03-16T04:49:19;-0.50;90.30
18654;DHT22;9456;47.824;16.228;2023-03-16T04:57:23;-0.50;90.10
18654;DHT22;9456;47.824;16.228;2023-03-16T04:59:53;-0.50;90.10
18654;DHT22;9456;47.824;16.228;2023-03-16T05:02:25;-0.50;90.30
18654;DHT22;9456;47.824;16.228;2023-03-16T05:04:55;-0.50;90.30
18654;DHT22;9456;47.824;16.228;2023-03-16T05:09:52;-0.40;90.10
18654;DHT22;9456;47.824;16.228;2023-03-16T05:12:22;-0.40;90.10
18654;DHT22;9456;47.824;16.228;2023-03-16T05:14:51;-0.50;90.00
18654;DHT22;9456;47.824;16.228;2023-03-16T05:17:22;-0.50;90.00
18654;DHT22;9456;47.824;16.228;2023-03-16T05:19:53;-0.40;90.00
18654;DHT22;9456;47.824;16.228;2023-03-16T05:22:23;-0.30;90.20
18654;DHT22;9456;47.824;16.228;2023-03-16T05:25:14;0.10;89.10
18654;DHT22;9456;47.824;16.228;2023-03-16T05:31:15;2.50;81.60
18654;DHT22;9456;47.824;16.228;2023-03-16T05:34:03;4.30;70.90
18654;DHT22;9456;47.824;16.228;2023-03-16T05:36:32;5.70;62.50
18654;DHT22;9456;47.824;16.228;2023-03-16T05:39:19;6.50;58.30
18654;DHT22;9456;47.824;16.228;2023-03-16T05:41:48;7.30;56.20
18654;DHT22;9456;47.824;16.228;2023-03-16T05:44:20;8.00;53.70
18654;DHT22;9456;47.824;16.228;2023-03-16T05:49:33;9.80;48.80
18654;DHT22;9456;47.824;16.228;2023-03-16T05:52:21;10.70;45.80
18654;DHT22;9456;47.824;16.228;2023-03-16T06:03:36;12.50;40.00
18654;DHT22;9456;47.824;16.228;2023-03-16T06:14:17;13.10;39.30
18654;DHT22;9456;47.824;16.228;2023-03-16T06:16:51;13.50;38.50
18654;DHT22;9456;47.824;16.228;2023-03-16T06:22:45;14.40;36.70
18654;DHT22;9456;47.824;16.228;2023-03-16T06:25:16;13.40;36.10
18654;DHT22;9456;47.824;16.228;2023-03-16T06:27:45;13.70;37.40
18654;DHT22;9456;47.824;16.228;2023-03-16T06:30:20;13.70;37.00
18654;DHT22;9456;47.824;16.228;2023-03-16T06:35:28;13.50;35.80
18654;DHT22;9456;47.824;16.228;2023-03-16T06:37:59;13.90;36.40
18654;DHT22;9456;47.824;16.228;2023-03-16T06:42:58;14.50;35.40
18654;DHT22;9456;47.824;16.228;2023-03-16T06:45:28;13.40;36.60
18654;DHT22;9456;47.824;16.228;2023-03-16T06:48:08;13.00;36.70
18654;DHT22;9456;47.824;16.228;2023-03-16T06:50:46;13.00;37.10
18654;DHT22;9456;47.824;16.228;2023-03-16T06:56:37;15.00;34.70
18654;DHT22;9456;47.824;16.228;2023-03-16T06:59:07;14.60;33.60
18654;DHT22;9456;47.824;16.228;2023-03-16T07:01:36;14.80;34.20
18654;DHT22;9456;47.824;16.228;2023-03-16T07:04:10;14.60;33.50
18654;DHT22;9456;47.824;16.228;2023-03-16T07:07:17;14.30;33.70
18654;DHT22;9456;47.824;16.228;2023-03-16T07:09:48;14.00;34.00
18654;DHT22;9456;47.824;16.228;2023-03-16T07:12:19;14.40;33.60
18654;DHT22;9456;47.824;16.228;2023-03-16T07:14:51;14.50;33.00
18654;DHT22;9456;47.824;16.228;2023-03-16T07:17:44;14.70;33.10
18654;DHT22;9456;47.824;16.228;2023-03-16T07:20:14;14.70;32.10
18654;DHT22;9456;47.824;16.228;2023-03-16T07:25:48;15.10;32.20
18654;DHT22;9456;47.824;16.228;2023-03-16T07:28:18;14.20;32.70
18654;DHT22;9456;47.824;16.228;2023-03-16T07:30:47;14.30;33.30
18654;DHT22;9456;47.824;16.228;2023-03-16T07:33:16;13.70;33.60
18654;DHT22;9456;47.824;16.228;2023-03-16T07:35:45;13.70;33.80
18654;DHT22;9456;47.824;16.228;2023-03-16T07:38:14;14.00;33.10
18654;DHT22;9456;47.824;16.228;2023-03-16T07:40:43;13.90;33.00
18654;DHT22;9456;47.824;16.228;2023-03-16T07:43:15;13.80;33.00
18654;DHT22;9456;47.824;16.228;2023-03-16T07:45:48;13.90;33.50
18654;DHT22;9456;47.824;16.228;2023-03-16T07:48:18;14.50;32.30
18654;DHT22;9456;47.824;16.228;2023-03-16T07:50:47;15.10;31.50
18654;DHT22;9456;47.824;16.228;2023-03-16T07:53:17;15.60;31.20
18654;DHT22;9456;47.824;16.228;2023-03-16T07:55:47;14.70;31.50
18654;DHT22;9456;47.824;16.228;2023-03-16T07:58:16;14.70;32.60
18654;DHT22;9456;47.824;16.228;2023-03-16T08:00:46;14.90;30.60
18654;DHT22;9456;47.824;16.228;2023-03-16T08:03:16;15.10;30.60
18654;DHT22;9456;47.824;16.228;2023-03-16T08:08:14;14.80;30.40
18654;DHT22;9456;47.824;16.228;2023-03-16T08:10:45;14.80;30.40
18654;DHT22;9456;47.824;16.228;2023-03-16T08:13:13;14.60;30.50
18654;DHT22;9456;47.824;16.228;2023-03-16T08:18:31;13.80;31.50
18654;DHT22;9456;47.824;16.228;2023-03-16T08:21:00;14.00;31.20
18654;DHT22;9456;47.824;16.228;2023-03-16T08:23:29;15.00;31.10
18654;DHT22;9456;47.824;16.228;2023-03-16T08:25:59;15.10;30.00
18654;DHT22;9456;47.824;16.228;2023-03-16T08:28:34;13.30;30.60
18654;DHT22;9456;47.824;16.228;2023-03-16T08:31:05;12.60;31.70
18654;DHT22;9456;47.824;16.228;2023-03-16T08:33:32;13.50;31.80
18654;DHT22;9456;47.824;16.228;2023-03-16T08:36:04;14.50;31.30
18654;DHT22;9456;47.824;16.228;2023-03-16T08:38:33;15.10;30.20
18654;DHT22;9456;47.824;16.228;2023-03-16T08:41:04;14.50;29.90
18654;DHT22;9456;47.824;16.228;2023-03-16T08:43:33;12.80;31.10
18654;DHT22;9456;47.824;16.228;2023-03-16T08:46:26;12.10;32.20
18654;DHT22;9456;47.824;16.228;2023-03-16T08:48:55;11.30;34.10
18654;DHT22;9456;47.824;16.228;2023-03-16T08:51:26;11.90;33.00
18654;DHT22;9456;47.824;16.228;2023-03-16T08:56:31;12.90;30.80
18654;DHT22;9456;47.824;16.228;2023-03-16T08:59:02;12.20;30.60
18654;DHT22;9456;47.824;16.228;2023-03-16T09:01:32;12.30;31.60
18654;DHT22;9456;47.824;16.228;2023-03-16T09:04:01;11.30;31.50
18654;DHT22;9456;47.824;16.228;2023-03-16T09:06:31;10.60;33.80
18654;DHT22;9456;47.824;16.228;2023-03-16T09:09:00;10.90;33.30
18654;DHT22;9456;47.824;16.228;2023-03-16T09:11:29;11.50;33.50
18654;DHT22;9456;47.824;16.228;2023-03-16T09:16:53;11.10;34.20
18654;DHT22;9456;47.824;16.228;2023-03-16T09:19:23;11.50;34.30
18654;DHT22;9456;47.824;16.228;2023-03-16T09:25:01;11.80;33.00
18654;DHT22;9456;47.824;16.228;2023-03-16T09:27:30;10.70;34.70
18654;DHT22;9456;47.824;16.228;2023-03-16T09:30:00;10.00;36.40
18654;DHT22;9456;47.824;16.228;2023-03-16T09:32:33;9.40;37.70
18654;DHT22;9456;47.824;16.228;2023-03-16T09:35:04;9.30;37.80
18654;DHT22;9456;47.824;16.228;2023-03-16T09:40:07;10.30;33.50
18654;DHT22;9456;47.824;16.228;2023-03-16T09:42:37;10.40;33.80
18654;DHT22;9456;47.824;16.228;2023-03-16T09:47:50;11.40;34.30
18654;DHT22;9456;47.824;16.228;2023-03-16T09:50:22;13.00;32.60
18654;DHT22;9456;47.824;16.228;2023-03-16T09:55:43;14.80;28.40
18654;DHT22;9456;47.824;16.228;2023-03-16T10:00:46;11.90;29.80
18654;DHT22;9456;47.824;16.228;2023-03-16T10:06:23;10.90;31.60
18654;DHT22;9456;47.824;16.228;2023-03-16T10:08:55;12.10;30.40
18654;DHT22;9456;47.824;16.228;2023-03-16T10:17:29;14.00;28.00
18654;DHT22;9456;47.824;16.228;2023-03-16T10:22:31;13.50;28.30
18654;DHT22;9456;47.824;16.228;2023-03-16T10:28:14;13.00;29.40
18654;DHT22;9456;47.824;16.228;2023-03-16T10:31:04;13.20;29.20
18654;DHT22;9456;47.824;16.228;2023-03-16T10:33:35;13.60;29.50
18654;DHT22;9456;47.824;16.228;2023-03-16T10:36:12;13.70;28.80
18654;DHT22;9456;47.824;16.228;2023-03-16T10:38:53;13.50;28.30
18654;DHT22;9456;47.824;16.228;2023-03-16T10:43:51;12.10;29.60
18654;DHT22;9456;47.824;16.228;2023-03-16T10:46:20;11.60;30.50
18654;DHT22;9456;47.824;16.228;2023-03-16T10:48:57;11.10;30.90
18654;DHT22;9456;47.824;16.228;2023-03-16T10:51:28;10.80;31.10
18654;DHT22;9456;47.824;16.228;2023-03-16T10:54:18;10.70;31.30
18654;DHT22;9456;47.824;16.228;2023-03-16T10:59:52;10.20;31.20
18654;DHT22;9456;47.824;16.228;2023-03-16T11:06:33;10.20;32.80
18654;DHT22;9456;47.824;16.228;2023-03-16T11:09:06;10.00;32.40
18654;DHT22;9456;47.824;16.228;2023-03-16T11:11:53;9.90;32.80
18654;DHT22;9456;47.824;16.228;2023-03-16T11:14:27;9.70;33.50
18654;DHT22;9456;47.824;16.228;2023-03-16T11:19:25;9.30;33.60
18654;DHT22;9456;47.824;16.228;2023-03-16T11:24:43;8.90;34.30
18654;DHT22;9456;47.824;16.228;2023-03-16T11:27:17;8.20;34.90
18654;DHT22;9456;47.824;16.228;2023-03-16T11:32:19;7.90;36.80
18654;DHT22;9456;47.824;16.228;2023-03-16T11:34:49;8.10;36.70
18654;DHT22;9456;47.824;16.228;2023-03-16T11:37:53;8.30;37.00
18654;DHT22;9456;47.824;16.228;2023-03-16T11:43:52;8.50;35.70
18654;DHT22;9456;47.824;16.228;2023-03-16T11:46:22;8.30;36.00
18654;DHT22;9456;47.824;16.228;2023-03-16T11:49:29;8.40;36.00
18654;DHT22;9456;47.824;16.228;2023-03-16T12:06:51;8.20;35.00
18654;DHT22;9456;47.824;16.228;2023-03-16T12:11:52;8.10;35.60
18654;DHT22;9456;47.824;16.228;2023-03-16T12:14:22;8.10;36.00
18654;DHT22;9456;47.824;16.228;2023-03-16T12:23:26;8.30;35.60
18654;DHT22;9456;47.824;16.228;2023-03-16T12:29:15;8.40;35.20
18654;DHT22;9456;47.824;16.228;2023-03-16T12:31:48;8.40;33.60
18654;DHT22;9456;47.824;16.228;2023-03-16T12:34:30;8.40;33.00
18654;DHT22;9456;47.824;16.228;2023-03-16T12:40:32;8.30;32.40
18654;DHT22;9456;47.824;16.228;2023-03-16T12:48:39;8.60;32.70
18654;DHT22;9456;47.824;16.228;2023-03-16T12:54:23;8.50;32.80
18654;DHT22;9456;47.824;16.228;2023-03-16T13:05:59;8.70;32.80
18654;DHT22;9456;47.824;16.228;2023-03-16T13:08:38;8.80;33.00
18654;DHT22;9456;47.824;16.228;2023-03-16T13:11:16;8.90;33.20
18654;DHT22;9456;47.824;16.228;2023-03-16T13:14:07;8.70;32.60
18654;DHT22;9456;47.824;16.228;2023-03-16T13:26:39;8.70;32.70
18654;DHT22;9456;47.824;16.228;2023-03-16T13:32:40;8.50;32.60
18654;DHT22;9456;47.824;16.228;2023-03-16T13:35:17;8.50;32.90
18654;DHT22;9456;47.824;16.228;2023-03-16T13:40:51;8.70;32.70
18654;DHT22;9456;47.824;16.228;2023-03-16T13:43:21;8.60;32.30
18654;DHT22;9456;47.824;16.228;2023-03-16T13:45:49;8.60;33.40
18654;DHT22;9456;47.824;16.228;2023-03-16T13:48:21;8.50;32.90
18654;DHT22;9456;47.824;16.228;2023-03-16T13:50:58;8.60;32.90
18654;DHT22;9456;47.824;16.228;2023-03-16T13:53:30;8.70;32.50
18654;DHT22;9456;47.824;16.228;2023-03-16T14:02:00;8.80;32.40
18654;DHT22;9456;47.824;16.228;2023-03-16T14:04:30;8.70;31.90
18654;DHT22;9456;47.824;16.228;2023-03-16T14:12:38;8.90;31.90
18654;DHT22;9456;47.824;16.228;2023-03-16T14:15:13;8.80;30.80
18654;DHT22;9456;47.824;16.228;2023-03-16T14:20:51;8.80;31.20
18654;DHT22;9456;47.824;16.228;2023-03-16T14:25:49;8.90;30.90
18654;DHT22;9456;47.824;16.228;2023-03-16T14:28:20;8.80;31.10
18654;DHT22;9456;47.824;16.228;2023-03-16T14:31:00;8.80;32.10
18654;DHT22;9456;47.824;16.228;2023-03-16T14:36:15;8.80;32.20
18654;DHT22;9456;47.824;16.228;2023-03-16T14:38:45;8.80;32.40
18654;DHT22;9456;47.824;16.228;2023-03-16T14:41:22;8.80;32.10
18654;DHT22;9456;47.824;16.228;2023-03-16T14:43:51;8.70;33.00
18654;DHT22;9456;47.824;16.228;2023-03-16T14:46:38;8.70;32.80
18654;DHT22;9456;47.824;16.228;2023-03-16T14:51:43;8.70;31.50
18654;DHT22;9456;47.824;16.228;2023-03-16T14:54:14;8.70;31.80
18654;DHT22;9456;47.824;16.228;2023-03-16T14:56:58;8.60;32.50
18654;DHT22;9456;47.824;16.228;2023-03-16T14:59:25;8.50;32.60
18654;DHT22;9456;47.824;16.228;2023-03-16T15:01:54;8.50;32.20
18654;DHT22;9456;47.824;16.228;2023-03-16T15:04:27;8.50;32.10
18654;DHT22;9456;47.824;16.228;2023-03-16T15:06:57;8.60;33.30
18654;DHT22;9456;47.824;16.228;2023-03-16T15:12:16;8.50;33.20
18654;DHT22;9456;47.824;16.228;2023-03-16T15:14:46;8.50;33.20
18654;DHT22;9456;47.824;16.228;2023-03-16T15:17:35;8.40;33.60
18654;DHT22;9456;47.824;16.228;2023-03-16T15:20:08;8.40;33.00
18654;DHT22;9456;47.824;16.228;2023-03-16T15:22:40;8.30;33.40
18654;DHT22;9456;47.824;16.228;2023-03-16T15:34:01;8.10;34.00
18654;DHT22;9456;47.824;16.228;2023-03-16T15:36:31;8.10;34.60
18654;DHT22;9456;47.824;16.228;2023-03-16T15:39:20;8.00;34.30
18654;DHT22;9456;47.824;16.228;2023-03-16T15:41:49;8.00;34.30
18654;DHT22;9456;47.824;16.228;2023-03-16T15:44:19;7.90;34.70
18654;DHT22;9456;47.824;16.228;2023-03-16T15:49:54;7.90;35.30
18654;DHT22;9456;47.824;16.228;2023-03-16T15:52:25;7.80;35.20
18654;DHT22;9456;47.824;16.228;2023-03-16T15:54:53;7.80;35.50
18654;DHT22;9456;47.824;16.228;2023-03-16T16:00:37;7.70;35.30
18654;DHT22;9456;47.824;16.228;2023-03-16T16:03:10;7.60;35.50
18654;DHT22;9456;47.824;16.228;2023-03-16T16:05:41;7.60;35.80
18654;DHT22;9456;47.824;16.228;2023-03-16T16:11:40;7.50;35.90
18654;DHT22;9456;47.824;16.228;2023-03-16T16:14:28;7.50;36.70
18654;DHT22;9456;47.824;16.228;2023-03-16T16:20:27;7.30;37.10
18654;DHT22;9456;47.824;16.228;2023-03-16T16:23:13;7.30;37.60
18654;DHT22;9456;47.824;16.228;2023-03-16T16:25:52;7.20;38.00
18654;DHT22;9456;47.824;16.228;2023-03-16T16:33:58;7.10;38.30
18654;DHT22;9456;47.824;16.228;2023-03-16T16:39:06;7.00;38.40
18654;DHT22;9456;47.824;16.228;2023-03-16T16:44:48;6.90;38.70
18654;DHT22;9456;47.824;16.228;2023-03-16T16:47:24;6.80;38.80
18654;DHT22;9456;47.824;16.228;2023-03-16T16:49:53;6.70;39.10
18654;DHT22;9456;47.824;16.228;2023-03-16T16:52:22;6.60;39.50
18654;DHT22;9456;47.824;16.228;2023-03-16T16:54:51;6.50;39.50
18654;DHT22;9456;47.824;16.228;2023-03-16T16:57:21;6.50;39.40
18654;DHT22;9456;47.824;16.228;2023-03-16T16:59:50;6.40;39.40
18654;DHT22;9456;47.824;16.228;2023-03-16T17:02:26;6.30;39.70
18654;DHT22;9456;47.824;16.228;2023-03-16T17:04:54;6.20;39.90
18654;DHT22;9456;47.824;16.228;2023-03-16T17:07:23;6.20;40.00
18654;DHT22;9456;47.824;16.228;2023-03-16T17:09:52;6.10;40.20
18654;DHT22;9456;47.824;16.228;2023-03-16T17:12:24;6.00;40.20
18654;DHT22;9456;47.824;16.228;2023-03-16T17:14:54;5.80;40.50
18654;DHT22;9456;47.824;16.228;2023-03-16T17:17:23;5.70;40.80
18654;DHT22;9456;47.824;16.228;2023-03-16T17:19:52;5.60;41.80
18654;DHT22;9456;47.824;16.228;2023-03-16T17:22:22;5.50;41.50
18654;DHT22;9456;47.824;16.228;2023-03-16T17:24:51;5.30;41.60
18654;DHT22;9456;47.824;16.228;2023-03-16T17:27:23;5.20;42.00
18654;DHT22;9456;47.824;16.228;2023-03-16T17:29:56;5.00;42.20
18654;DHT22;9456;47.824;16.228;2023-03-16T17:32:25;4.90;42.50
18654;DHT22;9456;47.824;16.228;2023-03-16T17:34:54;4.80;42.60
18654;DHT22;9456;47.824;16.228;2023-03-16T17:39:59;4.80;43.00
18654;DHT22;9456;47.824;16.228;2023-03-16T17:42:30;4.80;42.80
18654;DHT22;9456;47.824;16.228;2023-03-16T17:44:59;4.70;43.00
18654;DHT22;9456;47.824;16.228;2023-03-16T17:47:35;4.60;43.20
18654;DHT22;9456;47.824;16.228;2023-03-16T17:50:13;4.50;43.50
18654;DHT22;9456;47.824;16.228;2023-03-16T17:52:43;4.30;43.60
18654;DHT22;9456;47.824;16.228;2023-03-16T17:55:12;4.20;44.20
18654;DHT22;9456;47.824;16.228;2023-03-16T17:57:41;4.00;45.40
18654;DHT22;9456;47.824;16.228;2023-03-16T18:00:18;3.90;45.20
18654;DHT22;9456;47.824;16.228;2023-03-16T18:02:49;3.70;45.20
18654;DHT22;9456;47.824;16.228;2023-03-16T18:05:19;3.70;45.90
18654;DHT22;9456;47.824;16.228;2023-03-16T18:07:47;3.60;46.30
18654;DHT22;9456;47.824;16.228;2023-03-16T18:10:18;3.50;46.30
18654;DHT22;9456;47.824;16.228;2023-03-16T18:12:48;3.40;46.50
18654;DHT22;9456;47.824;16.228;2023-03-16T18:15:17;3.30;46.70
18654;DHT22;9456;47.824;16.228;2023-03-16T18:17:46;3.30;47.10
18654;DHT22;9456;47.824;16.228;2023-03-16T18:20:22;3.20;47.50
18654;DHT22;9456;47.824;16.228;2023-03-16T18:22:54;3.10;48.30
18654;DHT22;9456;47.824;16.228;2023-03-16T18:25:42;3.00;48.50
18654;DHT22;9456;47.824;16.228;2023-03-16T18:28:11;2.90;48.00
18654;DHT22;9456;47.824;16.228;2023-03-16T18:30:43;2.90;48.60
18654;DHT22;9456;47.824;16.228;2023-03-16T18:33:21;2.80;48.60
18654;DHT22;9456;47.824;16.228;2023-03-16T18:35:50;2.70;48.70
18654;DHT22;9456;47.824;16.228;2023-03-16T18:38:20;2.50;49.00
18654;DHT22;9456;47.824;16.228;2023-03-16T18:40:49;2.40;50.30
18654;DHT22;9456;47.824;16.228;2023-03-16T18:49:02;2.00;50.40
18654;DHT22;9456;47.824;16.228;2023-03-16T18:51:31;1.80;51.00
18654;DHT22;9456;47.824;16.228;2023-03-16T18:54:01;1.60;51.60
18654;DHT22;9456;47.824;16.228;2023-03-16T18:56:34;1.50;52.20
18654;DHT22;9456;47.824;16.228;2023-03-16T19:02:35;1.20;53.00
18654;DHT22;9456;47.824;16.228;2023-03-16T19:07:55;0.90;55.20
18654;DHT22;9456;47.824;16.228;2023-03-16T19:10:46;0.80;55.70
18654;DHT22;9456;47.824;16.228;2023-03-16T19:13:34;0.70;57.00
18654;DHT22;9456;47.824;16.228;2023-03-16T19:16:14;0.70;57.20
18654;DHT22;9456;47.824;16.228;2023-03-16T19:21:24;0.60;57.10
18654;DHT22;9456;47.824;16.228;2023-03-16T19:41:22;0.20;60.30
18654;DHT22;9456;47.824;16.228;2023-03-16T19:43:52;0.10;60.60
18654;DHT22;9456;47.824;16.228;2023-03-16T19:48:53;0.10;61.40
18654;DHT22;9456;47.824;16.228;2023-03-16T19:51:42;0.20;62.30
18654;DHT22;9456;47.824;16.228;2023-03-16T19:54:16;0.40;61.50
18654;DHT22;9456;47.824;16.228;2023-03-16T19:56:47;0.40;60.70
18654;DHT22;9456;47.824;16.228;2023-03-16T20:04:56;0.40;59.90
18654;DHT22;9456;47.824;16.228;2023-03-16T20:10:17;0.40;59.50
18654;DHT22;9456;47.824;16.228;2023-03-16T20:12:50;0.40;59.40
18654;DHT22;9456;47.824;16.228;2023-03-16T20:15:18;0.30;59.50
18654;DHT22;9456;47.824;16.228;2023-03-16T20:17:48;0.30;59.60
18654;DHT22;9456;47.824;16.228;2023-03-16T20:20:25;0.20;59.50
18654;DHT22;9456;47.824;16.228;2023-03-16T20:25:27;0.10;60.00
18654;DHT22;9456;47.824;16.228;2023-03-16T20:27:56;0.00;60.20
18654;DHT22;9456;47.824;16.228;2023-03-16T20:30:25;-0.10;60.70
18654;DHT22;9456;47.824;16.228;2023-03-16T20:32:56;-0.10;61.20
18654;DHT22;9456;47.824;16.228;2023-03-16T20:38:26;-0.20;60.80
18654;DHT22;9456;47.824;16.228;2023-03-16T20:40:55;-0.20;60.80
18654;DHT22;9456;47.824;16.228;2023-03-16T20:43:24;-0.30;61.10
18654;DHT22;9456;47.824;16.228;2023-03-16T20:46:03;-0.30;61.30
18654;DHT22;9456;47.824;16.228;2023-03-16T20:55:01;-0.60;61.60
18654;DHT22;9456;47.824;16.228;2023-03-16T21:02:53;-0.90;64.20
18654;DHT22;9456;47.824;16.228;2023-03-16T21:05:42;-0.90;64.60
18654;DHT22;9456;47.824;16.228;2023-03-16T21:08:33;-0.90;64.20
18654;DHT22;9456;47.824;16.228;2023-03-16T21:11:02;-0.80;64.30
18654;DHT22;9456;47.824;16.228;2023-03-16T21:13:32;-0.80;63.90
18654;DHT22;9456;47.824;16.228;2023-03-16T21:21:23;-0.90;64.70
18654;DHT22;9456;47.824;16.228;2023-03-16T21:23:53;-0.90;64.90
18654;DHT22;9456;47.824;16.228;2023-03-16T21:26:23;-0.90;65.10
18654;DHT22;9456;47.824;16.228;2023-03-16T21:28:53;-1.00;65.40
18654;DHT22;9456;47.824;16.228;2023-03-16T21:31:49;-1.00;65.90
18654;DHT22;9456;47.824;16.228;2023-03-16T21:34:22;-1.10;66.20
18654;DHT22;9456;47.824;16.228;2023-03-16T21:40:19;-1.20;66.20
18654;DHT22;9456;47.824;16.228;2023-03-16T21:42:50;-1.20;66.60
18654;DHT22;9456;47.824;16.228;2023-03-16T21:45:22;-1.30;67.10
18654;DHT22;9456;47.824;16.228;2023-03-16T21:47:51;-1.30;67.20
18654;DHT22;9456;47.824;16.228;2023-03-16T21:50:41;-1.40;67.40
18654;DHT22;9456;47.824;16.228;2023-03-16T21:53:35;-1.40;67.80